createdAt,value
2022-10-23T00:00:28.288Z,17.14
2022-10-23T00:01:32.306Z,17.15
2022-10-23T00:02:33.825Z,17.16
2022-10-23T00:03:35.363Z,17.13
2022-10-23T00:04:36.864Z,17.14
2022-10-23T00:05:39.401Z,17.12
2022-10-23T00:06:40.896Z,17.12
2022-10-23T00:07:42.326Z,17.10
2022-10-23T00:08:43.891Z,17.10
2022-10-23T00:09:45.343Z,17.08
2022-10-23T00:10:46.868Z,17.08
2022-10-23T00:11:48.579Z,17.08
2022-10-23T00:12:50.115Z,17.07
2022-10-23T00:13:51.663Z,17.08
2022-10-23T00:14:53.156Z,17.06
2022-10-23T00:15:54.622Z,17.06
2022-10-23T00:16:56.077Z,17.06
2022-10-23T00:17:57.835Z,17.05
2022-10-23T00:18:59.307Z,17.04
2022-10-23T00:20:01.006Z,17.04
2022-10-23T00:21:02.639Z,17.03
2022-10-23T00:22:04.179Z,17.02
2022-10-23T00:23:05.595Z,17.02
2022-10-23T00:25:11.043Z,17.02
2022-10-23T00:26:15.711Z,17.00
2022-10-23T00:27:17.165Z,17.00
2022-10-23T00:28:18.718Z,16.98
2022-10-23T00:29:20.216Z,16.98
2022-10-23T00:30:21.679Z,16.98
2022-10-23T00:31:23.355Z,16.97
2022-10-23T00:32:24.855Z,16.96
2022-10-23T00:33:26.376Z,16.97
2022-10-23T00:34:27.968Z,16.96
2022-10-23T00:35:29.443Z,16.97
2022-10-23T00:36:31.006Z,16.96
2022-10-23T00:37:32.449Z,16.95
2022-10-23T00:38:34.158Z,16.93
2022-10-23T00:39:35.691Z,16.92
2022-10-23T00:40:37.427Z,16.92
2022-10-23T00:41:38.936Z,16.90
2022-10-23T00:42:40.576Z,16.89
2022-10-23T00:44:14.352Z,16.91
2022-10-23T00:45:18.857Z,16.90
2022-10-23T00:46:20.386Z,16.88
2022-10-23T00:47:21.876Z,16.86
2022-10-23T00:48:23.364Z,16.85
2022-10-23T00:49:25.592Z,16.86
2022-10-23T00:50:27.511Z,16.86
2022-10-23T00:51:29.774Z,16.86
2022-10-23T00:52:31.329Z,16.85
2022-10-23T00:53:32.778Z,16.84
2022-10-23T00:54:34.980Z,16.85
2022-10-23T00:55:36.734Z,16.85
2022-10-23T00:56:38.710Z,16.84
2022-10-23T00:57:41.099Z,16.82
2022-10-23T00:58:42.599Z,16.81
2022-10-23T00:59:44.075Z,16.80
2022-10-23T01:00:45.553Z,16.79
2022-10-23T01:01:47.300Z,16.80
2022-10-23T01:02:49.000Z,16.80
2022-10-23T01:03:50.529Z,16.78
2022-10-23T01:04:51.961Z,16.79
2022-10-23T01:05:53.389Z,16.79
2022-10-23T01:07:06.042Z,16.79
2022-10-23T01:08:17.646Z,16.79
2022-10-23T01:09:22.063Z,16.78
2022-10-23T01:10:29.496Z,16.79
2022-10-23T01:11:33.395Z,16.76
2022-10-23T01:12:37.489Z,16.76
2022-10-23T01:13:48.410Z,16.75
2022-10-23T01:15:01.458Z,16.74
2022-10-23T01:16:07.575Z,16.73
2022-10-23T01:17:11.904Z,16.73
2022-10-23T01:18:22.091Z,16.72
2022-10-23T01:19:44.210Z,16.71
2022-10-23T01:20:47.216Z,16.65
2022-10-23T01:22:14.761Z,16.70
2022-10-23T01:23:22.249Z,16.70
2022-10-23T01:24:27.437Z,16.70
2022-10-23T01:25:37.974Z,16.70
2022-10-23T01:26:46.866Z,16.69
2022-10-23T01:27:51.107Z,16.68
2022-10-23T01:29:03.731Z,16.68
2022-10-23T01:30:17.114Z,16.67
2022-10-23T01:31:24.989Z,16.67
2022-10-23T01:32:32.342Z,16.68
2022-10-23T01:33:36.447Z,16.66
2022-10-23T01:34:48.246Z,16.66
2022-10-23T01:35:50.700Z,16.65
2022-10-23T01:36:52.166Z,16.65
2022-10-23T01:37:55.082Z,16.64
2022-10-23T01:38:58.433Z,16.65
2022-10-23T01:40:01.228Z,16.65
2022-10-23T01:41:04.207Z,16.64
2022-10-23T01:42:07.728Z,16.64
2022-10-23T01:43:13.715Z,16.63
2022-10-23T01:44:16.774Z,16.64
2022-10-23T01:45:38.535Z,16.65
2022-10-23T01:46:42.031Z,16.63
2022-10-23T01:47:45.157Z,16.62
2022-10-23T01:48:54.638Z,16.61
2022-10-23T01:49:57.624Z,16.61
2022-10-23T01:51:02.962Z,16.60
2022-10-23T01:52:07.392Z,16.58
2022-10-23T01:53:09.926Z,16.57
2022-10-23T01:54:12.082Z,16.57
2022-10-23T01:55:13.958Z,16.55
2022-10-23T01:56:16.121Z,16.54
2022-10-23T01:57:17.988Z,16.47
2022-10-23T01:58:21.080Z,16.52
2022-10-23T01:59:25.532Z,16.52
2022-10-23T02:00:27.566Z,16.51
2022-10-23T02:01:29.467Z,16.51
2022-10-23T02:02:31.157Z,16.49
2022-10-23T02:03:32.935Z,16.48
2022-10-23T02:04:35.865Z,16.47
2022-10-23T02:05:39.246Z,16.46
2022-10-23T02:06:41.016Z,16.44
2022-10-23T02:07:42.792Z,16.41
2022-10-23T02:08:44.443Z,16.40
2022-10-23T02:09:45.956Z,16.39
2022-10-23T02:11:07.671Z,16.38
2022-10-23T02:12:09.897Z,16.37
2022-10-23T02:13:30.034Z,16.35
2022-10-23T02:14:37.823Z,16.35
2022-10-23T02:15:49.044Z,16.33
2022-10-23T02:16:51.498Z,16.32
2022-10-23T02:18:09.768Z,16.32
2022-10-23T02:19:25.417Z,16.31
2022-10-23T02:20:37.317Z,16.33
2022-10-23T02:21:38.848Z,16.32
2022-10-23T02:22:41.186Z,16.31
2022-10-23T02:23:56.743Z,16.31
2022-10-23T02:25:06.907Z,16.31
2022-10-23T02:26:10.342Z,16.31
2022-10-23T02:27:13.015Z,16.29
2022-10-23T02:28:15.896Z,16.27
2022-10-23T02:29:30.432Z,16.27
2022-10-23T02:30:34.581Z,16.27
2022-10-23T02:31:43.731Z,16.25
2022-10-23T02:32:46.521Z,16.22
2022-10-23T02:33:48.420Z,16.23
2022-10-23T02:34:50.028Z,16.21
2022-10-23T02:35:52.421Z,16.22
2022-10-23T02:36:56.482Z,16.23
2022-10-23T02:37:59.159Z,16.21
2022-10-23T02:39:02.279Z,16.22
2022-10-23T02:40:04.025Z,16.22
2022-10-23T02:41:19.389Z,16.21
2022-10-23T02:42:28.664Z,16.22
2022-10-23T02:43:32.378Z,16.22
2022-10-23T02:44:39.809Z,16.23
2022-10-23T02:45:46.875Z,16.22
2022-10-23T02:46:50.952Z,16.23
2022-10-23T02:47:55.267Z,16.20
2022-10-23T02:49:09.703Z,16.20
2022-10-23T02:50:11.279Z,16.19
2022-10-23T02:51:21.074Z,16.18
2022-10-23T02:52:43.327Z,16.17
2022-10-23T02:53:51.465Z,16.16
2022-10-23T02:54:58.956Z,16.15
2022-10-23T02:56:00.411Z,16.15
2022-10-23T02:57:01.905Z,16.13
2022-10-23T02:58:09.358Z,16.11
2022-10-23T02:59:53.505Z,16.11
2022-10-23T03:00:56.222Z,16.09
2022-10-23T03:02:02.918Z,16.09
2022-10-23T03:03:11.807Z,16.07
2022-10-23T03:04:13.330Z,16.08
2022-10-23T03:05:16.538Z,16.07
2022-10-23T03:06:18.039Z,16.07
2022-10-23T03:07:19.658Z,16.08
2022-10-23T03:08:21.193Z,16.08
2022-10-23T03:09:22.673Z,16.08
2022-10-23T03:10:24.431Z,16.07
2022-10-23T03:11:26.103Z,16.08
2022-10-23T03:12:27.685Z,16.07
2022-10-23T03:13:29.191Z,16.07
2022-10-23T03:14:30.648Z,16.07
2022-10-23T03:15:32.198Z,16.06
2022-10-23T03:16:33.682Z,16.07
2022-10-23T03:17:35.123Z,16.07
2022-10-23T03:18:37.162Z,16.05
2022-10-23T03:19:38.671Z,16.06
2022-10-23T03:20:40.137Z,16.05
2022-10-23T03:21:41.622Z,16.05
2022-10-23T03:22:43.742Z,16.03
2022-10-23T03:23:45.426Z,16.03
2022-10-23T03:24:52.177Z,16.02
2022-10-23T03:25:53.681Z,16.01
2022-10-23T03:27:11.712Z,16.01
2022-10-23T03:28:13.301Z,16.01
2022-10-23T03:29:14.799Z,15.99
2022-10-23T03:30:19.480Z,15.98
2022-10-23T03:31:24.910Z,15.97
2022-10-23T03:32:31.171Z,15.97
2022-10-23T03:33:34.568Z,15.97
2022-10-23T03:34:44.345Z,15.97
2022-10-23T03:35:45.872Z,15.96
2022-10-23T03:36:49.825Z,15.96
2022-10-23T03:37:54.786Z,15.95
2022-10-23T03:39:00.252Z,15.95
2022-10-23T03:40:01.921Z,15.94
2022-10-23T03:41:05.922Z,15.93
2022-10-23T03:42:07.450Z,15.90
2022-10-23T03:43:08.972Z,15.91
2022-10-23T03:44:12.475Z,15.89
2022-10-23T03:45:18.981Z,15.90
2022-10-23T03:46:22.202Z,15.89
2022-10-23T03:47:27.939Z,15.87
2022-10-23T03:48:29.447Z,15.88
2022-10-23T03:49:33.369Z,15.87
2022-10-23T03:50:39.435Z,15.87
2022-10-23T03:51:41.786Z,15.87
2022-10-23T03:52:43.574Z,15.84
2022-10-23T03:53:47.158Z,15.82
2022-10-23T03:54:50.383Z,15.81
2022-10-23T03:55:52.269Z,15.80
2022-10-23T03:56:56.631Z,15.80
2022-10-23T03:57:59.231Z,15.80
2022-10-23T03:59:00.825Z,15.80
2022-10-23T04:00:02.320Z,15.81
2022-10-23T04:01:07.524Z,15.79
2022-10-23T04:02:10.608Z,15.78
2022-10-23T04:03:12.098Z,15.75
2022-10-23T04:04:13.715Z,15.73
2022-10-23T04:05:17.963Z,15.73
2022-10-23T04:06:27.988Z,15.72
2022-10-23T04:07:32.058Z,15.71
2022-10-23T04:08:36.329Z,15.71
2022-10-23T04:09:42.331Z,15.70
2022-10-23T04:10:49.740Z,15.69
2022-10-23T04:11:55.485Z,15.69
2022-10-23T04:13:00.364Z,15.69
2022-10-23T04:14:02.324Z,15.68
2022-10-23T04:15:04.006Z,15.68
2022-10-23T04:16:05.540Z,15.68
2022-10-23T04:17:07.145Z,15.68
2022-10-23T04:18:08.926Z,15.67
2022-10-23T04:19:10.442Z,15.68
2022-10-23T04:20:11.949Z,15.66
2022-10-23T04:21:13.421Z,15.66
2022-10-23T04:22:14.944Z,15.65
2022-10-23T04:23:16.579Z,15.67
2022-10-23T04:24:19.298Z,15.66
2022-10-23T04:25:21.043Z,15.66
2022-10-23T04:26:22.520Z,15.64
2022-10-23T04:27:24.048Z,15.63
2022-10-23T04:28:25.685Z,15.63
2022-10-23T04:29:29.422Z,15.63
2022-10-23T04:30:31.767Z,15.63
2022-10-23T04:31:33.230Z,15.64
2022-10-23T04:32:34.771Z,15.63
2022-10-23T04:33:36.310Z,15.63
2022-10-23T04:34:37.823Z,15.61
2022-10-23T04:35:39.316Z,15.59
2022-10-23T04:36:40.838Z,15.58
2022-10-23T04:37:45.149Z,15.58
2022-10-23T04:38:47.877Z,15.57
2022-10-23T04:39:49.467Z,15.57
2022-10-23T04:40:50.956Z,15.57
2022-10-23T04:41:56.086Z,15.55
2022-10-23T04:42:59.880Z,15.55
2022-10-23T04:44:04.821Z,15.55
2022-10-23T04:45:08.255Z,15.55
2022-10-23T04:46:10.382Z,15.56
2022-10-23T04:47:11.851Z,15.56
2022-10-23T04:48:25.554Z,15.55
2022-10-23T04:49:48.815Z,15.54
2022-10-23T04:51:16.379Z,15.54
2022-10-23T04:52:36.570Z,15.54
2022-10-23T04:53:57.694Z,15.45
2022-10-23T04:55:34.515Z,15.53
2022-10-23T04:56:46.992Z,15.51
2022-10-23T04:57:52.350Z,15.50
2022-10-23T04:58:57.855Z,15.49
2022-10-23T04:59:59.519Z,15.48
2022-10-23T05:01:01.245Z,15.47
2022-10-23T05:02:03.703Z,15.48
2022-10-23T05:03:05.238Z,15.47
2022-10-23T05:04:11.937Z,15.46
2022-10-23T05:05:33.502Z,15.46
2022-10-23T05:06:40.635Z,15.46
2022-10-23T05:08:00.766Z,15.46
2022-10-23T05:09:22.495Z,15.47
2022-10-23T05:10:38.496Z,15.46
2022-10-23T05:11:44.731Z,15.45
2022-10-23T05:12:46.271Z,15.43
2022-10-23T05:13:47.818Z,15.42
2022-10-23T05:14:49.378Z,15.42
2022-10-23T05:15:51.151Z,15.42
2022-10-23T05:16:57.345Z,15.42
2022-10-23T05:18:00.098Z,15.41
2022-10-23T05:19:01.598Z,15.41
2022-10-23T05:20:04.013Z,15.42
2022-10-23T05:21:10.295Z,15.43
2022-10-23T05:22:15.277Z,15.42
2022-10-23T05:23:22.535Z,15.43
2022-10-23T05:24:33.546Z,15.43
2022-10-23T05:25:37.143Z,15.43
2022-10-23T05:26:48.379Z,15.44
2022-10-23T05:27:50.275Z,15.43
2022-10-23T05:28:51.796Z,15.42
2022-10-23T05:29:53.391Z,15.42
2022-10-23T05:30:59.082Z,15.42
2022-10-23T05:32:02.786Z,15.43
2022-10-23T05:33:05.595Z,15.43
2022-10-23T05:34:13.525Z,15.43
2022-10-23T05:35:19.367Z,15.43
2022-10-23T05:36:22.933Z,15.42
2022-10-23T05:37:30.220Z,15.43
2022-10-23T05:38:41.831Z,15.41
2022-10-23T05:39:50.410Z,15.41
2022-10-23T05:40:52.446Z,15.41
2022-10-23T05:41:55.671Z,15.41
2022-10-23T05:42:59.406Z,15.40
2022-10-23T05:44:21.181Z,15.41
2022-10-23T05:45:41.454Z,15.42
2022-10-23T05:46:55.963Z,15.42
2022-10-23T05:48:30.136Z,15.43
2022-10-23T05:50:01.054Z,15.43
2022-10-23T05:51:22.439Z,15.43
2022-10-23T05:52:50.376Z,15.43
2022-10-23T05:54:24.140Z,15.41
2022-10-23T05:55:51.771Z,15.40
2022-10-23T05:58:20.205Z,15.37
2022-10-23T05:59:34.314Z,15.34
2022-10-23T06:00:49.452Z,15.33
2022-10-23T06:02:10.940Z,15.33
2022-10-23T06:03:24.834Z,15.32
2022-10-23T06:04:27.031Z,15.32
2022-10-23T06:05:51.901Z,15.32
2022-10-23T06:06:58.266Z,15.29
2022-10-23T06:08:00.150Z,15.26
2022-10-23T06:09:02.549Z,15.23
2022-10-23T06:10:05.797Z,15.19
2022-10-23T06:11:11.412Z,15.17
2022-10-23T06:12:13.240Z,15.15
2022-10-23T06:13:19.130Z,15.16
2022-10-23T06:14:21.274Z,15.16
2022-10-23T06:15:25.077Z,15.16
2022-10-23T06:16:40.420Z,15.16
2022-10-23T06:17:42.643Z,15.17
2022-10-23T06:18:44.550Z,15.16
2022-10-23T06:19:49.590Z,15.17
2022-10-23T06:20:52.923Z,15.18
2022-10-23T06:22:00.672Z,15.17
2022-10-23T06:23:15.476Z,15.19
2022-10-23T06:24:35.219Z,15.18
2022-10-23T06:25:39.212Z,15.17
2022-10-23T06:26:40.800Z,15.17
2022-10-23T06:27:45.567Z,15.17
2022-10-23T06:28:47.323Z,15.16
2022-10-23T06:29:49.013Z,15.16
2022-10-23T06:30:50.678Z,15.17
2022-10-23T06:31:52.231Z,15.16
2022-10-23T06:32:54.126Z,15.16
2022-10-23T06:33:55.874Z,15.16
2022-10-23T06:34:57.809Z,15.17
2022-10-23T06:36:00.550Z,15.17
2022-10-23T06:37:02.378Z,15.19
2022-10-23T06:38:21.123Z,15.13
2022-10-23T06:39:31.238Z,15.13
2022-10-23T06:40:54.484Z,15.12
2022-10-23T06:42:03.407Z,15.12
2022-10-23T06:43:31.106Z,15.12
2022-10-23T06:44:57.509Z,15.10
2022-10-23T06:46:22.008Z,15.02
2022-10-23T06:47:38.411Z,15.02
2022-10-23T06:48:46.547Z,15.02
2022-10-23T06:49:55.441Z,15.05
2022-10-23T06:50:57.330Z,15.02
2022-10-23T06:52:14.530Z,15.03
2022-10-23T06:53:30.455Z,15.04
2022-10-23T06:54:40.830Z,15.04
2022-10-23T06:55:54.624Z,15.05
2022-10-23T06:56:57.591Z,15.07
2022-10-23T06:58:10.719Z,15.07
2022-10-23T06:59:23.198Z,15.08
2022-10-23T07:00:26.726Z,15.10
2022-10-23T07:01:28.806Z,15.10
2022-10-23T07:02:33.209Z,15.11
2022-10-23T07:03:34.855Z,15.12
2022-10-23T07:04:41.178Z,15.13
2022-10-23T07:05:48.934Z,15.12
2022-10-23T07:06:50.714Z,15.13
2022-10-23T07:07:58.709Z,15.15
2022-10-23T07:09:02.890Z,15.17
2022-10-23T07:10:22.985Z,15.20
2022-10-23T07:11:35.355Z,15.22
2022-10-23T07:12:36.877Z,15.25
2022-10-23T07:14:01.335Z,15.26
2022-10-23T07:15:03.674Z,15.30
2022-10-23T07:16:18.076Z,15.32
2022-10-23T07:17:19.839Z,15.36
2022-10-23T07:18:21.945Z,15.39
2022-10-23T07:19:42.407Z,15.42
2022-10-23T07:20:49.476Z,15.45
2022-10-23T07:21:51.162Z,15.49
2022-10-23T07:23:09.589Z,15.52
2022-10-23T07:24:13.315Z,15.55
2022-10-23T07:25:15.072Z,15.57
2022-10-23T07:26:16.931Z,15.57
2022-10-23T07:27:18.507Z,15.60
2022-10-23T07:28:21.890Z,15.62
2022-10-23T07:29:23.710Z,15.64
2022-10-23T07:30:25.290Z,15.64
2022-10-23T07:31:29.816Z,15.67
2022-10-23T07:32:51.328Z,15.65
2022-10-23T07:34:18.779Z,15.66
2022-10-23T07:35:24.991Z,15.68
2022-10-23T07:36:49.617Z,15.70
2022-10-23T07:37:51.142Z,15.72
2022-10-23T07:38:54.102Z,15.74
2022-10-23T07:39:56.236Z,15.76
2022-10-23T07:40:59.272Z,15.79
2022-10-23T07:42:00.827Z,15.81
2022-10-23T07:43:02.857Z,15.82
2022-10-23T07:44:05.330Z,15.84
2022-10-23T07:45:07.610Z,15.77
2022-10-23T07:46:11.049Z,15.81
2022-10-23T07:47:14.275Z,15.84
2022-10-23T07:48:19.318Z,15.87
2022-10-23T07:49:32.810Z,15.89
2022-10-23T07:50:34.934Z,15.92
2022-10-23T07:51:36.728Z,15.95
2022-10-23T07:52:38.913Z,15.97
2022-10-23T07:53:45.898Z,15.98
2022-10-23T07:55:10.775Z,15.99
2022-10-23T07:56:20.844Z,16.02
2022-10-23T07:57:51.659Z,16.04
2022-10-23T07:59:11.454Z,16.03
2022-10-23T08:00:13.234Z,16.03
2022-10-23T08:01:33.966Z,16.05
2022-10-23T08:02:36.250Z,16.07
2022-10-23T08:03:37.779Z,16.10
2022-10-23T08:04:39.397Z,16.14
2022-10-23T08:06:04.591Z,16.15
2022-10-23T08:07:06.090Z,16.22
2022-10-23T08:08:13.802Z,16.26
2022-10-23T08:09:18.523Z,16.32
2022-10-23T08:10:20.254Z,16.40
2022-10-23T08:11:27.083Z,16.44
2022-10-23T08:12:29.786Z,16.49
2022-10-23T08:13:31.586Z,16.55
2022-10-23T08:14:37.482Z,16.61
2022-10-23T08:15:39.030Z,16.67
2022-10-23T08:16:49.793Z,16.73
2022-10-23T08:17:51.262Z,16.81
2022-10-23T08:19:09.093Z,16.91
2022-10-23T08:20:13.715Z,17.01
2022-10-23T08:21:17.409Z,17.09
2022-10-23T08:22:19.710Z,17.19
2022-10-23T08:23:22.152Z,17.28
2022-10-23T08:24:23.936Z,17.42
2022-10-23T08:25:26.178Z,17.53
2022-10-23T08:26:29.474Z,17.59
2022-10-23T08:27:31.139Z,17.71
2022-10-23T08:28:33.079Z,17.78
2022-10-23T08:29:36.042Z,17.87
2022-10-23T08:30:37.735Z,17.96
2022-10-23T08:31:40.180Z,18.01
2022-10-23T08:33:05.244Z,18.10
2022-10-23T08:34:07.564Z,18.21
2022-10-23T08:35:09.277Z,18.33
2022-10-23T08:36:24.561Z,18.41
2022-10-23T08:37:26.042Z,18.53
2022-10-23T08:38:27.563Z,18.62
2022-10-23T08:39:29.080Z,18.75
2022-10-23T08:40:47.180Z,18.86
2022-10-23T08:42:15.886Z,18.96
2022-10-23T08:43:22.215Z,18.96
2022-10-23T08:44:38.881Z,19.00
2022-10-23T08:45:48.577Z,18.99
2022-10-23T08:47:10.151Z,18.99
2022-10-23T08:48:30.967Z,18.97
2022-10-23T08:49:55.944Z,18.96
2022-10-23T08:51:08.791Z,18.95
2022-10-23T08:52:28.869Z,18.93
2022-10-23T08:53:36.663Z,18.94
2022-10-23T08:54:50.382Z,18.93
2022-10-23T08:55:55.128Z,18.92
2022-10-23T08:57:16.831Z,18.90
2022-10-23T08:58:29.681Z,18.90
2022-10-23T08:59:37.983Z,18.67
2022-10-23T09:00:39.519Z,18.72
2022-10-23T09:01:42.246Z,18.80
2022-10-23T09:02:47.405Z,18.91
2022-10-23T09:03:48.888Z,18.98
2022-10-23T09:04:50.651Z,19.03
2022-10-23T09:05:55.216Z,19.13
2022-10-23T09:06:56.722Z,19.21
2022-10-23T09:08:01.430Z,19.26
2022-10-23T09:09:09.182Z,19.33
2022-10-23T09:10:31.448Z,19.40
2022-10-23T09:11:33.128Z,19.47
2022-10-23T09:12:34.546Z,19.51
2022-10-23T09:13:36.191Z,19.57
2022-10-23T09:14:53.131Z,19.58
2022-10-23T09:16:00.663Z,19.58
2022-10-23T09:17:09.078Z,19.58
2022-10-23T09:18:14.295Z,19.55
2022-10-23T09:19:16.792Z,19.56
2022-10-23T09:20:19.901Z,19.56
2022-10-23T09:21:26.467Z,19.57
2022-10-23T09:22:29.044Z,19.58
2022-10-23T09:23:30.549Z,19.57
2022-10-23T09:24:33.430Z,19.52
2022-10-23T09:25:35.468Z,19.43
2022-10-23T09:26:37.085Z,19.45
2022-10-23T09:27:38.719Z,19.44
2022-10-23T09:28:49.942Z,19.39
2022-10-23T09:29:52.983Z,19.34
2022-10-23T09:30:55.136Z,19.36
2022-10-23T09:31:57.230Z,19.39
2022-10-23T09:32:59.272Z,19.44
2022-10-23T09:34:01.402Z,19.45
2022-10-23T09:35:02.915Z,19.46
2022-10-23T09:36:05.456Z,19.47
2022-10-23T09:37:21.399Z,19.40
2022-10-23T09:38:33.602Z,19.42
2022-10-23T09:39:35.515Z,19.45
2022-10-23T09:40:37.245Z,19.45
2022-10-23T09:41:39.325Z,19.48
2022-10-23T09:42:50.087Z,19.49
2022-10-23T09:44:00.599Z,19.52
2022-10-23T09:45:02.322Z,19.53
2022-10-23T09:46:05.177Z,19.54
2022-10-23T09:47:07.915Z,19.55
2022-10-23T09:48:16.500Z,19.56
2022-10-23T09:49:19.354Z,19.56
2022-10-23T09:50:21.517Z,19.57
2022-10-23T09:51:23.010Z,19.59
2022-10-23T09:52:25.658Z,19.58
2022-10-23T09:53:34.239Z,19.59
2022-10-23T09:54:48.971Z,19.59
2022-10-23T09:55:53.967Z,19.60
2022-10-23T09:56:56.043Z,19.60
2022-10-23T09:57:57.554Z,19.59
2022-10-23T09:59:00.091Z,19.60
2022-10-23T10:00:02.163Z,19.60
2022-10-23T10:01:23.004Z,19.59
2022-10-23T10:02:27.889Z,19.62
2022-10-23T10:03:51.224Z,19.61
2022-10-23T10:04:56.042Z,19.63
2022-10-23T10:06:01.390Z,19.64
2022-10-23T10:07:03.706Z,19.65
2022-10-23T10:08:05.116Z,19.66
2022-10-23T10:09:14.162Z,19.69
2022-10-23T10:10:15.782Z,19.69
2022-10-23T10:11:21.897Z,19.71
2022-10-23T10:12:41.765Z,19.72
2022-10-23T10:13:52.603Z,19.74
2022-10-23T10:15:11.543Z,19.76
2022-10-23T10:16:16.263Z,19.77
2022-10-23T10:17:38.374Z,19.78
2022-10-23T10:18:39.815Z,19.77
2022-10-23T10:19:48.417Z,19.79
2022-10-23T10:20:49.923Z,19.79
2022-10-23T10:21:51.425Z,19.82
2022-10-23T10:23:01.367Z,19.82
2022-10-23T10:24:05.215Z,19.82
2022-10-23T10:25:21.857Z,19.83
2022-10-23T10:27:55.096Z,19.84
2022-10-23T10:29:10.791Z,19.85
2022-10-23T10:30:24.482Z,19.86
2022-10-23T10:31:34.660Z,19.87
2022-10-23T10:32:57.832Z,19.88
2022-10-23T10:34:08.004Z,19.89
2022-10-23T10:35:24.720Z,19.89
2022-10-23T10:36:32.783Z,19.91
2022-10-23T10:37:34.242Z,19.92
2022-10-23T10:38:39.340Z,19.92
2022-10-23T10:40:00.777Z,19.93
2022-10-23T10:41:19.947Z,19.95
2022-10-23T10:42:24.536Z,19.98
2022-10-23T10:44:04.551Z,20.01
2022-10-23T10:45:08.827Z,20.05
2022-10-23T10:47:26.139Z,20.17
2022-10-23T10:48:42.954Z,20.19
2022-10-23T10:49:56.182Z,20.26
2022-10-23T10:51:08.173Z,20.37
2022-10-23T10:52:26.726Z,20.45
2022-10-23T10:53:33.909Z,20.57
2022-10-23T10:54:43.924Z,20.65
2022-10-23T10:55:47.147Z,20.74
2022-10-23T10:56:48.671Z,20.82
2022-10-23T10:57:57.991Z,20.91
2022-10-23T10:59:02.057Z,20.99
2022-10-23T11:00:05.583Z,21.06
2022-10-23T11:01:27.654Z,21.15
2022-10-23T11:02:31.610Z,21.23
2022-10-23T11:03:40.282Z,21.27
2022-10-23T11:04:51.195Z,21.33
2022-10-23T11:05:52.733Z,21.38
2022-10-23T11:06:54.287Z,21.39
2022-10-23T11:07:57.839Z,21.41
2022-10-23T11:09:19.285Z,21.39
2022-10-23T11:10:21.811Z,21.36
2022-10-23T11:11:29.588Z,21.31
2022-10-23T11:12:31.088Z,21.27
2022-10-23T11:13:36.547Z,21.22
2022-10-23T11:14:38.093Z,21.16
2022-10-23T11:15:40.155Z,21.13
2022-10-23T11:16:42.642Z,21.15
2022-10-23T11:17:45.915Z,21.13
2022-10-23T11:19:11.430Z,21.12
2022-10-23T11:20:15.658Z,21.11
2022-10-23T11:21:17.379Z,21.06
2022-10-23T11:22:21.851Z,21.02
2022-10-23T11:23:49.571Z,21.01
2022-10-23T11:24:52.372Z,20.98
2022-10-23T11:25:59.251Z,20.98
2022-10-23T11:27:19.759Z,21.02
2022-10-23T11:28:24.298Z,21.05
2022-10-23T11:29:27.755Z,21.08
2022-10-23T11:30:46.479Z,21.10
2022-10-23T11:32:06.724Z,21.17
2022-10-23T11:33:13.981Z,21.20
2022-10-23T11:34:21.197Z,21.28
2022-10-23T11:35:32.009Z,21.33
2022-10-23T11:36:43.441Z,21.39
2022-10-23T11:37:45.072Z,21.43
2022-10-23T11:38:47.754Z,21.45
2022-10-23T11:40:03.144Z,21.47
2022-10-23T11:41:05.725Z,21.48
2022-10-23T11:42:07.174Z,21.54
2022-10-23T11:43:08.655Z,21.59
2022-10-23T11:44:22.870Z,21.58
2022-10-23T11:45:31.273Z,21.57
2022-10-23T11:46:33.898Z,21.64
2022-10-23T11:47:39.621Z,21.65
2022-10-23T11:48:42.090Z,21.68
2022-10-23T11:49:43.576Z,21.70
2022-10-23T11:50:44.977Z,21.71
2022-10-23T11:51:46.483Z,21.74
2022-10-23T11:53:12.953Z,21.77
2022-10-23T11:54:15.258Z,21.84
2022-10-23T11:55:18.378Z,21.88
2022-10-23T11:56:19.784Z,21.88
2022-10-23T11:57:22.219Z,21.92
2022-10-23T11:58:31.349Z,21.97
2022-10-23T11:59:33.961Z,22.03
2022-10-23T12:00:38.548Z,22.09
2022-10-23T12:01:41.692Z,22.17
2022-10-23T12:02:43.550Z,22.24
2022-10-23T12:03:48.039Z,22.28
2022-10-23T12:04:50.538Z,22.32
2022-10-23T12:06:02.544Z,22.34
2022-10-23T12:07:05.349Z,22.42
2022-10-23T12:08:07.828Z,22.46
2022-10-23T12:09:22.223Z,22.44
2022-10-23T12:10:26.608Z,22.48
2022-10-23T12:11:48.441Z,22.42
2022-10-23T12:12:56.939Z,22.41
2022-10-23T12:13:58.698Z,22.42
2022-10-23T12:15:07.487Z,22.43
2022-10-23T12:16:08.982Z,22.45
2022-10-23T12:17:22.613Z,22.45
2022-10-23T12:18:24.810Z,22.42
2022-10-23T12:19:27.414Z,22.43
2022-10-23T12:20:49.459Z,22.43
2022-10-23T12:21:51.662Z,22.42
2022-10-23T12:23:11.530Z,22.40
2022-10-23T12:24:23.182Z,22.37
2022-10-23T12:25:28.158Z,22.37
2022-10-23T12:26:41.622Z,22.36
2022-10-23T12:28:03.731Z,22.39
2022-10-23T12:29:08.916Z,22.38
2022-10-23T12:30:22.841Z,22.35
2022-10-23T12:31:30.283Z,22.36
2022-10-23T12:32:39.782Z,22.36
2022-10-23T12:33:43.254Z,22.35
2022-10-23T12:34:53.540Z,22.34
2022-10-23T12:36:07.307Z,22.34
2022-10-23T12:37:17.911Z,22.33
2022-10-23T12:38:20.463Z,22.34
2022-10-23T12:39:25.588Z,22.39
2022-10-23T12:40:29.961Z,22.37
2022-10-23T12:41:31.771Z,22.34
2022-10-23T12:42:33.655Z,22.35
2022-10-23T12:43:35.760Z,22.39
2022-10-23T12:44:37.296Z,22.39
2022-10-23T12:45:39.970Z,22.37
2022-10-23T12:46:48.342Z,22.41
2022-10-23T12:47:49.921Z,22.39
2022-10-23T12:48:52.078Z,22.38
2022-10-23T12:49:53.727Z,22.34
2022-10-23T12:50:55.466Z,22.32
2022-10-23T12:51:59.814Z,22.35
2022-10-23T12:53:03.081Z,22.36
2022-10-23T12:54:15.907Z,22.38
2022-10-23T12:55:17.876Z,22.37
2022-10-23T12:56:19.469Z,22.30
2022-10-23T12:57:22.546Z,22.29
2022-10-23T12:58:25.373Z,22.33
2022-10-23T12:59:36.926Z,22.36
2022-10-23T13:00:38.508Z,22.38
2022-10-23T13:01:41.693Z,22.38
2022-10-23T13:02:45.027Z,22.33
2022-10-23T13:03:46.548Z,22.35
2022-10-23T13:04:48.219Z,22.32
2022-10-23T13:05:50.423Z,22.26
2022-10-23T13:06:51.969Z,22.30
2022-10-23T13:07:54.562Z,22.34
2022-10-23T13:09:06.559Z,22.34
2022-10-23T13:10:15.498Z,22.35
2022-10-23T13:11:26.105Z,22.43
2022-10-23T13:12:30.181Z,22.45
2022-10-23T13:13:31.791Z,22.52
2022-10-23T13:14:39.389Z,22.50
2022-10-23T13:15:44.200Z,22.51
2022-10-23T13:16:45.691Z,22.50
2022-10-23T13:17:49.351Z,22.52
2022-10-23T13:18:50.863Z,22.49
2022-10-23T13:19:52.344Z,22.50
2022-10-23T13:20:53.819Z,22.48
2022-10-23T13:21:55.424Z,22.43
2022-10-23T13:23:01.315Z,22.42
2022-10-23T13:24:02.833Z,22.47
2022-10-23T13:25:19.138Z,22.50
2022-10-23T13:26:23.467Z,22.45
2022-10-23T13:27:32.942Z,22.47
2022-10-23T13:28:43.694Z,22.54
2022-10-23T13:29:45.205Z,22.54
2022-10-23T13:30:56.813Z,22.46
2022-10-23T13:31:58.250Z,22.47
2022-10-23T13:32:59.865Z,22.47
2022-10-23T13:34:01.462Z,22.40
2022-10-23T13:35:20.484Z,22.41
2022-10-23T13:36:23.752Z,22.42
2022-10-23T13:37:25.963Z,22.45
2022-10-23T13:38:28.090Z,22.35
2022-10-23T13:39:30.681Z,22.30
2022-10-23T13:40:32.180Z,22.35
2022-10-23T13:41:40.443Z,22.38
2022-10-23T13:42:42.503Z,22.43
2022-10-23T13:43:44.319Z,22.43
2022-10-23T13:44:45.741Z,22.34
2022-10-23T13:45:54.546Z,22.32
2022-10-23T13:46:56.051Z,22.36
2022-10-23T13:47:57.609Z,22.39
2022-10-23T13:48:59.052Z,22.43
2022-10-23T13:50:00.483Z,22.43
2022-10-23T13:51:14.542Z,22.43
2022-10-23T13:52:19.348Z,22.46
2022-10-23T13:53:20.846Z,22.48
2022-10-23T13:54:23.190Z,22.49
2022-10-23T13:55:24.847Z,22.48
2022-10-23T13:56:26.762Z,22.52
2022-10-23T13:57:28.406Z,22.50
2022-10-23T13:58:30.023Z,22.47
2022-10-23T13:59:31.527Z,22.48
2022-10-23T14:00:33.338Z,22.50
2022-10-23T14:01:35.950Z,22.39
2022-10-23T14:02:37.572Z,22.39
2022-10-23T14:03:39.149Z,22.39
2022-10-23T14:04:40.614Z,22.40
2022-10-23T14:05:42.082Z,22.38
2022-10-23T14:06:43.879Z,22.41
2022-10-23T14:07:45.535Z,22.43
2022-10-23T14:08:47.330Z,22.41
2022-10-23T14:09:50.590Z,22.42
2022-10-23T14:10:52.411Z,22.46
2022-10-23T14:11:54.064Z,22.44
2022-10-23T14:12:55.529Z,22.43
2022-10-23T14:13:57.180Z,22.41
2022-10-23T14:14:58.758Z,22.37
2022-10-23T14:16:00.193Z,22.36
2022-10-23T14:17:01.686Z,22.37
2022-10-23T14:18:07.330Z,22.41
2022-10-23T14:19:11.034Z,22.42
2022-10-23T14:20:12.551Z,22.43